Station info - map view · info · telemetry · weather · raw · status · beacons · messages · bulletins · browse · moving · my account
Callsign, ship name or locator: Clear       
It is possible to search using wildcards (*?) after a prefix. Example: OH*
APRS station IZ2JCD-7 - show graphs
Map loading...
Comment: Op.Angelo.qrv.145.550
Mic-E message: In service
Location: 45°51.13' N 9°57.04' E - locator JN45XU44BM - show map - static map
6.3 miles Northwest bearing 296° from Lovere, Provincia di Bergamo, Lombardy, Italy [?]
6.5 miles Northwest bearing 301° from Castro, Provincia di Bergamo, Lombardy, Italy
45.5 miles Northeast bearing 54° from Milan, Province of Milan, Lombardy, Italy
58.2 miles Northwest bearing 300° from Verona, Provincia di Verona, Veneto, Italy
Last position: 2018-10-21 02:48:27 EDT (32s ago)
2018-10-21 08:48:27 CEST local time at Lovere, Italy [?]
Altitude: 3937 ft
Course: 266°
Device: Yaesu: FT2D (ht)
Last path: IZ2JCD-7>T5UQQ3 via WIDE1-1,WIDE2-1,qAR,IU2GED (good)
Positions stored: 2845
Packet rate: 114 seconds between packets on average during 5251 seconds.
Other SSIDs: IZ2JCD-9
Stations near current position of IZ2JCD-7 - show more
callsign distance last heard - EDT      callsign distance last heard - EDT
IW2LEW-785.2 yards 340°2018-10-21 02:48:31 IW2NSB2.3 miles 353°2018-10-21 02:28:53
IU2EBF-N2.5 miles 33°2018-10-16 12:08:40 IU2EBF-H02.5 miles 33°2018-10-20 07:31:11
IK2UUJ-82.8 miles 301°2018-10-20 03:01:01 IU2GED-H03.0 miles 7°2018-10-21 02:31:57
IU2GED-83.2 miles 345°2018-10-19 07:11:50 EL-IU2HEE3.9 miles 50°2018-10-21 02:30:13
IU2GED4.0 miles 345°2018-10-21 02:38:32 IZ2UQD-94.7 miles 158°2018-10-16 14:09:32
IZ2XVQ-H04.8 miles 238°2018-10-12 04:30:23 IZ2XCK-94.8 miles 141°2018-10-21 00:43:59
IZ2PAG-64.8 miles 141°2018-10-12 16:15:21 IZ2PAG-104.8 miles 141°2018-10-21 00:51:54
IU2JFX-74.9 miles 345°2018-09-30 13:28:42 IW2EJH-105.3 miles 125°2018-10-21 02:22:14
IU2CMQ-55.4 miles 148°2018-10-17 10:22:16 IU2INW-75.6 miles 341°2018-09-23 09:37:42
IU2HEE-75.9 miles 40°2018-10-20 05:59:11 IW2EJH-116.1 miles 108°2018-10-21 02:43:38
Stations which heard IZ2JCD-7 directly on radio –
callsign pkts first heard - EDT last heard longest (tx => rx) longest at - EDT
IR2AO 50 2018-10-07 02:35:21 2018-10-07 05:29:49 JN55BV > JN45PM 45.1 miles 237° 2018-10-07 03:03:59
IR2UBX-11 1 2018-10-07 04:45:45 2018-10-07 04:45:45 JN55BV > JN45MQ 53.1 miles 256° 2018-10-07 04:45:45
IR2BZ 22 2018-10-07 03:14:11 2018-10-07 05:16:11 JN55BV > JN45XO 22.0 miles 199° 2018-10-07 05:08:20
IR2T 2 2018-10-07 03:23:52 2018-10-07 03:24:51 JN55BV > JN56EB 18.4 miles 42° 2018-10-07 03:23:52
IW2GOB-2 2 2018-10-07 03:21:38 2018-10-07 03:38:05 JN55BV > JN45SH 49.5 miles 215° 2018-10-07 03:38:05
IR1DM 2 2018-10-07 03:23:50 2018-10-07 04:45:44 JN55BV > JN44JS 101.1 miles 220° 2018-10-07 04:45:44
IR2S 39 2018-10-07 02:39:24 2018-10-07 05:16:11 JN55BV > JN55DQ 17.0 miles 154° 2018-10-07 03:06:01
IR2CW 3 2018-10-07 03:23:49 2018-10-07 04:45:43 JN55BV > JN45NE 67.6 miles 224° 2018-10-07 03:24:50
IZ2EVE 1 2018-10-07 04:48:48 2018-10-07 04:48:48 JN55BV > JN45JI 72.2 miles 240° 2018-10-07 04:48:48
IR2DF 42 2018-10-07 03:14:11 2018-10-07 05:11:32 JN55BV > JN55AS 9.8 miles 206° 2018-10-07 05:11:32
IZ2UQD-11 80 2018-10-07 02:38:26 2018-10-07 05:26:49 JN55BV > JN55DW 10.6 miles 72° 2018-10-07 02:38:26
IR2UFW 7 2018-10-07 02:41:32 2018-10-07 05:19:13 JN55BV > JN45LI 64.2 miles 237° 2018-10-07 04:56:55
IW2EJH-12 11 2018-10-07 03:24:50 2018-10-07 04:06:35 JN55BV > JN55AU 2.5 miles 217° 2018-10-07 04:06:35
IZ1XBB-1 2 2018-10-07 03:23:53 2018-10-07 04:45:47 JN55BV > JN44KV 91.6 miles 222° 2018-10-07 04:45:47
IW2NSB 150 2018-10-07 02:14:04 2018-10-21 02:47:26 JN55BV > JN45XV 7.9 miles 270° 2018-10-07 05:06:16
IR2BY 2 2018-10-07 03:23:49 2018-10-07 04:45:43 JN55BV > JN55BQ 12.6 miles 184° 2018-10-07 04:45:43
IR4UCI-11 6 2018-10-07 03:51:34 2018-10-07 05:10:31 JN55BV > JN54MM 104.1 miles 154° 2018-10-07 04:04:34
IU2GOH 22 2018-10-07 02:40:28 2018-10-07 05:11:32 JN55BV > JN55BL 28.5 miles 178° 2018-10-07 04:05:34
IU2GED 18 2018-10-07 02:49:42 2018-10-21 02:48:27 JN55BV > JN45XV 8.8 miles 280° 2018-10-07 03:24:50
IR2UFH 1 2018-10-07 03:23:49 2018-10-07 03:23:49 JN55BV > JN45KG 74.6 miles 235° 2018-10-07 03:23:49
IR2DQ 18 2018-10-07 03:15:12 2018-10-07 05:14:03 JN55BV > JN55AD 49.9 miles 186° 2018-10-07 05:14:03
IR2UEI 2 2018-10-07 03:23:49 2018-10-07 04:45:43 JN55BV > JN45JL 68.2 miles 245° 2018-10-07 04:45:43
IZ1TMF 1 2018-10-07 04:45:43 2018-10-07 04:45:43 JN55BV > JN35PA 149.8 miles 248° 2018-10-07 04:45:43
IZ4GJM-11 5 2018-10-07 03:24:52 2018-10-07 03:56:16 JN55BV > JN54MO 100.7 miles 152° 2018-10-07 03:56:16
IW2GOB-12 42 2018-10-07 02:57:53 2018-10-07 05:27:50 JN55BV > JN45SH 49.8 miles 215° 2018-10-07 02:57:53
IZ2DDY 5 2018-10-07 04:08:00 2018-10-07 05:16:15 JN55BV > JN45SH 49.3 miles 217° 2018-10-07 05:10:36

Only position packets which were originated by the station are shown here. The range statistics show some extra long hops, because some digipeaters do not correctly add themselves to the digipeater path. Please check the raw packets.
About this site
This page shows real-time information collected from the Automatic Position Reporting System Internet network (APRS-IS). APRS is used by amateur (ham) radio operators to transmit real-time position information, weather data, telemetry and messages over the radio. A vehicle equipped with a GPS receiver, a VHF transmitter or HF transceiver and a small computer device called a tracker transmits it's location, speed and course in a small data packet, which is then received by a nearby iGate receiving site which forwards the packet on the Internet. Systems connected to the Internet can send information on the APRS-IS without a radio transmitter, or collect and display information transmitted anywhere in the world.
FAQ · Blog · Discussion group · Linking to aprs.fi · AIS sites · Service status · Database statistics · Advertising on aprs.fi · Technical details · API · Change log · Planned changes · Credits and thanks · Terms Of Service · iPhone/iPad APRS